Time;durP1;ratioP1;P1;durP2;ratioP2;P2;SDS_P1;SDS_P2;PMS_P1;PMS_P2;Temp;Humidity;BMP_temperature;BMP_pressure;BME280_temperature;BME280_humidity;BME280_pressure;Samples;Min_cycle;Max_cycle;Signal;HPM_P1;HPM_P2
2020/12/20 00:00:08;;;;;;;797.47;728.57;;;;;;;;;;5032360;28;20548;-63
2020/12/20 00:02:35;;;;;;;644.10;594.23;;;;;;;;;;5032327;28;20284;-64
2020/12/20 00:05:03;;;;;;;609.20;563.53;;;;;;;;;;5031382;28;20187;-65
2020/12/20 00:07:29;;;;;;;697.97;642.13;;;;;;;;;;5039380;28;20235;-65
2020/12/20 00:09:56;;;;;;;709.60;655.90;;;;;;;;;;5037086;28;20182;-66
2020/12/20 00:12:23;;;;;;;761.57;693.70;;;;;;;;;;5035995;28;20177;-65
2020/12/20 00:14:49;;;;;;;638.63;588.30;;;;;;;;;;5037812;28;20566;-63
2020/12/20 00:17:16;;;;;;;749.13;687.20;;;;;;;;;;5035364;28;20183;-63
2020/12/20 00:19:43;;;;;;;623.00;579.87;;;;;;;;;;5034835;28;20242;-64
2020/12/20 00:22:11;;;;;;;869.20;789.37;;;;;;;;;;5039045;28;20179;-63
2020/12/20 00:24:38;;;;;;;695.30;642.63;;;;;;;;;;5033181;28;20753;-63
2020/12/20 00:27:05;;;;;;;805.23;738.93;;;;;;;;;;5032949;28;20184;-63
2020/12/20 00:29:32;;;;;;;711.77;655.47;;;;;;;;;;5040927;28;20508;-66
2020/12/20 00:32:00;;;;;;;728.23;671.33;;;;;;;;;;5037431;28;20226;-64
2020/12/20 00:34:27;;;;;;;830.47;758.63;;;;;;;;;;5038168;28;20245;-63
2020/12/20 00:36:53;;;;;;;719.23;655.33;;;;;;;;;;5037348;28;20182;-65
2020/12/20 00:39:21;;;;;;;840.53;765.37;;;;;;;;;;5035577;28;20296;-65
2020/12/20 00:41:51;;;;;;;669.20;624.03;;;;;;;;;;5034629;28;20187;-65
2020/12/20 00:44:18;;;;;;;839.40;764.60;;;;;;;;;;5038443;28;20182;-64
2020/12/20 00:46:45;;;;;;;648.73;601.30;;;;;;;;;;5037012;28;20206;-63
2020/12/20 00:49:12;;;;;;;831.57;758.80;;;;;;;;;;5039221;28;20810;-62
2020/12/20 00:51:39;;;;;;;829.07;758.37;;;;;;;;;;5041873;28;20209;-64
2020/12/20 00:54:08;;;;;;;685.77;633.80;;;;;;;;;;5037376;28;20512;-63
2020/12/20 00:56:35;;;;;;;742.87;680.80;;;;;;;;;;5028049;28;20270;-64
2020/12/20 00:59:02;;;;;;;662.87;608.83;;;;;;;;;;5037665;28;20170;-64
2020/12/20 01:01:29;;;;;;;731.70;672.83;;;;;;;;;;5039167;28;20183;-64
2020/12/20 01:03:56;;;;;;;667.60;618.73;;;;;;;;;;5033950;28;20804;-64
2020/12/20 01:06:25;;;;;;;724.60;667.93;;;;;;;;;;5034130;28;20187;-66
2020/12/20 01:08:52;;;;;;;570.07;530.90;;;;;;;;;;5036783;28;20208;-64
2020/12/20 01:11:19;;;;;;;659.07;606.07;;;;;;;;;;5039604;28;20250;-65
2020/12/20 01:13:46;;;;;;;636.00;588.03;;;;;;;;;;5037834;28;20438;-63
2020/12/20 01:16:24;;;;;;;643.87;592.27;;;;;;;;;;5034715;28;20191;-65
2020/12/20 01:18:51;;;;;;;679.97;626.10;;;;;;;;;;5030333;28;20184;-65
2020/12/20 01:21:18;;;;;;;702.20;647.93;;;;;;;;;;5027989;28;20180;-64
2020/12/20 01:23:46;;;;;;;690.87;636.50;;;;;;;;;;5041230;28;20213;-64
2020/12/20 01:26:13;;;;;;;718.10;660.10;;;;;;;;;;5032447;28;20174;-66
2020/12/20 01:28:40;;;;;;;763.93;698.63;;;;;;;;;;5035857;28;20193;-64
2020/12/20 01:31:07;;;;;;;723.43;664.27;;;;;;;;;;5032802;28;20208;-66
2020/12/20 01:33:36;;;;;;;794.57;724.30;;;;;;;;;;5037207;28;20173;-65
2020/12/20 01:36:04;;;;;;;631.97;586.53;;;;;;;;;;5046856;28;20200;-65
2020/12/20 01:38:32;;;;;;;668.03;615.67;;;;;;;;;;5029566;28;20190;-65
2020/12/20 01:40:59;;;;;;;801.77;730.10;;;;;;;;;;5033646;28;20653;-65
2020/12/20 01:43:28;;;;;;;845.90;769.47;;;;;;;;;;5016153;28;20168;-65
2020/12/20 01:45:55;;;;;;;798.00;731.03;;;;;;;;;;5028753;28;20532;-64
2020/12/20 01:48:22;;;;;;;771.97;707.73;;;;;;;;;;5025362;28;20169;-65
2020/12/20 01:50:48;;;;;;;695.20;642.17;;;;;;;;;;5034123;28;20445;-64
2020/12/20 01:53:16;;;;;;;662.67;617.10;;;;;;;;;;5040949;28;20681;-65
2020/12/20 01:55:43;;;;;;;819.97;749.60;;;;;;;;;;5034515;28;20185;-64
2020/12/20 01:58:10;;;;;;;724.00;669.40;;;;;;;;;;5028252;28;20199;-64
2020/12/20 02:00:40;;;;;;;693.90;637.60;;;;;;;;;;5044503;28;20680;-65
2020/12/20 02:03:07;;;;;;;853.77;781.23;;;;;;;;;;5036966;28;20185;-64
2020/12/20 02:05:34;;;;;;;674.77;622.53;;;;;;;;;;5029167;28;20247;-64
2020/12/20 02:08:01;;;;;;;734.60;680.03;;;;;;;;;;5029736;28;20194;-65
2020/12/20 02:10:28;;;;;;;833.40;762.27;;;;;;;;;;5038388;28;20296;-64
2020/12/20 14:08:16;;;;;;;869.67;776.50;;;;;;;;;;6076231;22;1690536;-63
2020/12/20 14:10:43;;;;;;;763.43;696.27;;;;;;;;;;6144440;23;20496;-64
2020/12/20 14:13:09;;;;;;;684.07;616.20;;;;;;;;;;6143862;23;20157;-63
2020/12/20 14:15:36;;;;;;;743.60;676.27;;;;;;;;;;6143043;23;20855;-62
2020/12/20 14:18:03;;;;;;;748.87;680.40;;;;;;;;;;6144373;23;20223;-62
2020/12/20 14:20:30;;;;;;;782.83;702.03;;;;;;;;;;6144571;23;20182;-63
2020/12/20 14:22:56;;;;;;;735.40;667.90;;;;;;;;;;6144813;23;20601;-63
2020/12/20 14:25:23;;;;;;;680.30;616.43;;;;;;;;;;6145299;23;20172;-64
2020/12/20 14:27:50;;;;;;;695.90;628.23;;;;;;;;;;6145696;23;20157;-64
2020/12/20 14:30:18;;;;;;;721.87;655.57;;;;;;;;;;6145393;23;20619;-66
2020/12/20 14:32:47;;;;;;;813.97;733.73;;;;;;;;;;6144126;23;20481;-63
2020/12/20 14:35:14;;;;;;;744.13;673.40;;;;;;;;;;6144211;23;20240;-64
2020/12/20 14:37:41;;;;;;;814.63;734.87;;;;;;;;;;6144446;23;20409;-62
2020/12/20 14:40:08;;;;;;;862.10;775.80;;;;;;;;;;6144902;23;20149;-62
2020/12/20 14:42:35;;;;;;;879.07;799.30;;;;;;;;;;6145151;23;20199;-63
2020/12/20 14:45:01;;;;;;;798.70;729.73;;;;;;;;;;6145112;23;20158;-62
2020/12/20 14:47:28;;;;;;;872.90;784.83;;;;;;;;;;6144322;23;20534;-63
2020/12/20 14:49:55;;;;;;;921.27;836.37;;;;;;;;;;6143337;23;21048;-63
2020/12/20 14:52:21;;;;;;;955.13;860.43;;;;;;;;;;6143072;23;20153;-63
2020/12/20 14:54:48;;;;;;;895.73;814.30;;;;;;;;;;6144716;23;20608;-64
2020/12/20 14:57:15;;;;;;;700.37;634.27;;;;;;;;;;6144897;23;20184;-63
2020/12/20 14:59:42;;;;;;;732.80;659.67;;;;;;;;;;6145024;23;20145;-64
2020/12/20 15:02:08;;;;;;;829.23;741.07;;;;;;;;;;6144866;23;20215;-63
2020/12/20 15:04:35;;;;;;;778.63;700.83;;;;;;;;;;6145171;23;20252;-64
2020/12/20 15:07:01;;;;;;;667.93;613.17;;;;;;;;;;6153576;23;20251;-62
2020/12/20 15:09:28;;;;;;;695.30;632.37;;;;;;;;;;6166355;23;20267;-63
2020/12/20 15:11:55;;;;;;;742.83;672.43;;;;;;;;;;6167514;23;20155;-64
2020/12/20 15:14:21;;;;;;;790.13;706.00;;;;;;;;;;6168828;22;20160;-63
2020/12/20 15:16:48;;;;;;;587.10;539.83;;;;;;;;;;6168249;23;20181;-62
2020/12/20 15:19:14;;;;;;;621.83;567.70;;;;;;;;;;6167584;23;20156;-63
2020/12/20 15:21:43;;;;;;;774.13;694.47;;;;;;;;;;6168003;23;20247;-63
2020/12/20 15:24:10;;;;;;;895.43;802.90;;;;;;;;;;6167118;22;20147;-63
2020/12/20 15:26:39;;;;;;;901.53;807.07;;;;;;;;;;6166879;22;20540;-65
2020/12/20 15:29:06;;;;;;;887.53;792.60;;;;;;;;;;6167484;23;20472;-62
2020/12/20 15:31:32;;;;;;;503.63;463.77;;;;;;;;;;6168399;23;20175;-62
2020/12/20 15:34:00;;;;;;;558.43;511.37;;;;;;;;;;6170149;22;20213;-63
2020/12/20 15:36:27;;;;;;;755.10;685.67;;;;;;;;;;6170172;23;20253;-63
2020/12/20 15:38:54;;;;;;;681.83;618.77;;;;;;;;;;6171824;23;20158;-63
2020/12/20 15:41:21;;;;;;;710.13;641.83;;;;;;;;;;6169570;22;20518;-63
2020/12/20 15:43:49;;;;;;;596.77;545.50;;;;;;;;;;6169070;23;20596;-62
2020/12/20 15:46:16;;;;;;;763.87;691.87;;;;;;;;;;6167510;23;20153;-63
2020/12/20 15:48:44;;;;;;;757.40;683.23;;;;;;;;;;6168504;23;20145;-62
2020/12/20 15:51:21;;;;;;;714.20;649.27;;;;;;;;;;6168504;22;20239;-64
2020/12/20 15:53:48;;;;;;;653.97;599.40;;;;;;;;;;6168535;22;20194;-67
2020/12/20 15:56:15;;;;;;;725.87;659.90;;;;;;;;;;6168986;23;20188;-65
2020/12/20 15:58:41;;;;;;;855.63;769.40;;;;;;;;;;6167527;23;20217;-63
2020/12/20 16:01:08;;;;;;;695.87;631.90;;;;;;;;;;6167641;23;20145;-62
2020/12/20 16:03:36;;;;;;;879.40;782.43;;;;;;;;;;6166284;23;20171;-65
2020/12/20 16:06:04;;;;;;;732.03;660.03;;;;;;;;;;6168450;23;20164;-63
2020/12/20 16:08:32;;;;;;;728.23;657.27;;;;;;;;;;6167593;23;20201;-64
2020/12/20 16:11:00;;;;;;;692.77;629.20;;;;;;;;;;6168064;22;20486;-63
2020/12/20 16:13:26;;;;;;;815.10;736.97;;;;;;;;;;6167859;22;20641;-62
2020/12/20 16:15:53;;;;;;;769.70;691.40;;;;;;;;;;6167623;23;20210;-63
2020/12/20 16:18:25;;;;;;;564.27;517.87;;;;;;;;;;6166762;23;20203;-62
2020/12/20 16:20:52;;;;;;;539.00;497.47;;;;;;;;;;6166740;22;20169;-63
2020/12/20 16:23:19;;;;;;;521.37;482.33;;;;;;;;;;6167396;23;20617;-62
2020/12/20 16:25:46;;;;;;;530.07;487.27;;;;;;;;;;6168474;23;20180;-63
2020/12/20 16:28:12;;;;;;;587.67;538.33;;;;;;;;;;6168608;22;20154;-62
2020/12/20 16:30:39;;;;;;;645.97;586.73;;;;;;;;;;6168127;23;20602;-63
2020/12/20 16:33:06;;;;;;;629.53;578.33;;;;;;;;;;6166455;23;20155;-64
2020/12/20 16:35:33;;;;;;;607.83;556.63;;;;;;;;;;6167374;23;20653;-62
2020/12/20 16:38:00;;;;;;;701.07;636.17;;;;;;;;;;6166569;23;20166;-62
2020/12/20 16:40:27;;;;;;;692.13;627.90;;;;;;;;;;6166447;22;20149;-62
2020/12/20 16:42:54;;;;;;;768.10;692.27;;;;;;;;;;6167299;23;20640;-64
2020/12/20 16:45:20;;;;;;;751.80;679.70;;;;;;;;;;6167866;23;20263;-63
2020/12/20 16:47:48;;;;;;;744.83;674.20;;;;;;;;;;6167723;23;20480;-62
2020/12/20 16:50:15;;;;;;;791.43;713.27;;;;;;;;;;6168091;22;20182;-62
2020/12/20 16:52:42;;;;;;;752.60;681.63;;;;;;;;;;6167601;22;20153;-64
2020/12/20 16:55:09;;;;;;;750.47;677.03;;;;;;;;;;6167138;23;20145;-62
2020/12/20 16:57:35;;;;;;;818.30;735.07;;;;;;;;;;6165846;23;20188;-64
2020/12/20 17:00:02;;;;;;;723.70;653.80;;;;;;;;;;6166416;23;20238;-62
2020/12/20 17:02:28;;;;;;;867.07;778.07;;;;;;;;;;6166821;23;20819;-63
2020/12/20 17:04:55;;;;;;;794.97;716.27;;;;;;;;;;6167553;23;20157;-63
2020/12/20 17:07:22;;;;;;;811.80;724.77;;;;;;;;;;6167441;23;20209;-62
2020/12/20 17:09:48;;;;;;;713.77;650.67;;;;;;;;;;6166626;23;20156;-63
2020/12/20 17:12:15;;;;;;;712.40;647.17;;;;;;;;;;6167592;23;20849;-64
2020/12/20 17:14:41;;;;;;;864.17;774.00;;;;;;;;;;6166313;23;20163;-62
2020/12/20 17:17:08;;;;;;;693.83;629.03;;;;;;;;;;6166106;23;20186;-62
2020/12/20 17:19:35;;;;;;;733.10;659.07;;;;;;;;;;6166951;23;20159;-63
2020/12/20 17:22:01;;;;;;;905.10;796.90;;;;;;;;;;6167416;23;20152;-61
2020/12/20 17:24:29;;;;;;;815.20;732.07;;;;;;;;;;6167188;23;20152;-64
2020/12/20 17:26:55;;;;;;;877.07;783.80;;;;;;;;;;6166619;23;20168;-63
2020/12/20 17:29:22;;;;;;;928.70;808.17;;;;;;;;;;6167028;23;20576;-62
2020/12/20 17:31:49;;;;;;;1028.20;884.53;;;;;;;;;;6166297;23;20149;-64
2020/12/20 17:34:17;;;;;;;994.33;888.50;;;;;;;;;;6166153;23;20165;-63
2020/12/20 17:36:44;;;;;;;952.17;851.77;;;;;;;;;;6166777;23;20185;-64
2020/12/20 17:39:10;;;;;;;921.27;828.23;;;;;;;;;;6163674;23;20900;-63
2020/12/20 17:41:37;;;;;;;868.40;778.93;;;;;;;;;;6163925;23;20234;-64
2020/12/20 17:44:04;;;;;;;806.23;728.93;;;;;;;;;;6159609;23;20156;-63
2020/12/20 17:46:30;;;;;;;853.77;767.30;;;;;;;;;;6163548;23;20156;-63
2020/12/20 17:48:58;;;;;;;931.57;815.17;;;;;;;;;;6163228;23;20172;-63
2020/12/20 17:51:25;;;;;;;971.60;844.70;;;;;;;;;;6161120;22;20149;-65
2020/12/20 17:53:52;;;;;;;883.13;788.93;;;;;;;;;;6163635;22;20661;-62
2020/12/20 17:56:20;;;;;;;898.77;803.73;;;;;;;;;;6165650;23;20947;-62
2020/12/20 17:58:47;;;;;;;880.27;788.80;;;;;;;;;;6164508;22;20556;-64
2020/12/20 18:01:15;;;;;;;911.40;818.07;;;;;;;;;;6162598;22;20228;-65
2020/12/20 18:03:42;;;;;;;858.53;773.07;;;;;;;;;;6163848;23;20611;-62
2020/12/20 18:06:09;;;;;;;884.37;794.27;;;;;;;;;;6163920;23;20152;-63
2020/12/20 18:08:36;;;;;;;942.13;838.90;;;;;;;;;;6163143;23;20241;-64
2020/12/20 18:11:02;;;;;;;980.10;828.00;;;;;;;;;;6164197;23;20155;-61
2020/12/20 18:13:29;;;;;;;886.87;790.90;;;;;;;;;;6163433;23;20141;-63
2020/12/20 18:15:56;;;;;;;932.07;832.37;;;;;;;;;;6163681;23;20189;-66
2020/12/20 18:18:22;;;;;;;937.17;835.37;;;;;;;;;;6163083;22;20158;-63
2020/12/20 18:20:49;;;;;;;842.27;758.93;;;;;;;;;;6163901;23;20474;-62
2020/12/20 18:23:19;;;;;;;884.80;793.60;;;;;;;;;;6164198;23;20150;-64
2020/12/20 18:25:46;;;;;;;890.43;802.37;;;;;;;;;;6164414;23;20180;-62
2020/12/20 18:28:13;;;;;;;920.83;820.50;;;;;;;;;;6163700;23;20517;-61
2020/12/20 18:30:40;;;;;;;904.73;807.10;;;;;;;;;;6160824;23;20232;-62
2020/12/20 18:33:07;;;;;;;965.73;867.43;;;;;;;;;;6158746;23;20199;-63
2020/12/20 18:35:34;;;;;;;866.27;777.20;;;;;;;;;;6160600;23;20141;-61
2020/12/20 18:38:01;;;;;;;964.87;859.23;;;;;;;;;;6162091;23;20642;-63
2020/12/20 18:40:28;;;;;;;823.77;742.87;;;;;;;;;;6164692;23;20231;-61
2020/12/20 18:42:55;;;;;;;843.47;757.03;;;;;;;;;;6168754;23;20157;-63
2020/12/20 18:45:21;;;;;;;826.80;749.37;;;;;;;;;;6164857;23;20202;-62
2020/12/20 18:47:51;;;;;;;871.60;787.53;;;;;;;;;;6161592;23;20539;-63
2020/12/20 18:50:19;;;;;;;950.43;835.00;;;;;;;;;;6165417;22;20156;-63
2020/12/20 18:52:46;;;;;;;841.47;759.43;;;;;;;;;;6165610;23;20884;-62
2020/12/20 18:55:12;;;;;;;899.73;806.03;;;;;;;;;;6164416;23;20232;-61
2020/12/20 18:57:40;;;;;;;887.20;793.03;;;;;;;;;;6164392;23;20313;-62
2020/12/20 19:00:06;;;;;;;876.87;782.50;;;;;;;;;;6164430;23;20192;-62
2020/12/20 19:02:33;;;;;;;821.80;739.87;;;;;;;;;;6164643;23;20156;-62
2020/12/20 19:04:59;;;;;;;831.10;746.13;;;;;;;;;;6162590;23;20149;-61
2020/12/20 19:07:26;;;;;;;843.33;757.07;;;;;;;;;;6161988;23;20200;-62
2020/12/20 19:09:53;;;;;;;915.43;822.63;;;;;;;;;;6165266;23;20183;-61
2020/12/20 19:12:19;;;;;;;873.60;789.27;;;;;;;;;;6164500;23;20153;-61
2020/12/20 19:14:46;;;;;;;1139.70;901.17;;;;;;;;;;6165368;23;20141;-64
2020/12/20 19:17:12;;;;;;;868.77;779.47;;;;;;;;;;6164425;23;20199;-64
2020/12/20 19:19:39;;;;;;;945.67;849.20;;;;;;;;;;6165462;23;20152;-62
2020/12/20 19:22:06;;;;;;;947.83;846.80;;;;;;;;;;6164093;22;20251;-62
2020/12/20 19:24:32;;;;;;;896.20;812.53;;;;;;;;;;6164306;23;20162;-64
2020/12/20 19:26:59;;;;;;;908.20;824.03;;;;;;;;;;6160776;23;20153;-61
2020/12/20 19:29:27;;;;;;;914.70;833.77;;;;;;;;;;6163948;22;20156;-64
2020/12/20 19:31:54;;;;;;;1108.27;923.57;;;;;;;;;;6164257;22;20152;-62
2020/12/20 19:34:20;;;;;;;853.90;777.10;;;;;;;;;;6164854;22;20156;-62
2020/12/20 19:36:50;;;;;;;925.37;830.37;;;;;;;;;;6164334;23;20188;-63
2020/12/20 19:39:18;;;;;;;903.23;814.77;;;;;;;;;;6165503;23;20141;-62
2020/12/20 19:41:47;;;;;;;933.47;834.87;;;;;;;;;;6166209;23;20811;-63
2020/12/20 19:44:15;;;;;;;891.33;805.07;;;;;;;;;;6165044;23;20252;-62
2020/12/20 19:46:41;;;;;;;948.57;853.17;;;;;;;;;;6165151;22;20149;-62
2020/12/20 19:49:10;;;;;;;892.03;807.23;;;;;;;;;;6165218;23;20220;-64
2020/12/20 19:51:37;;;;;;;851.57;777.33;;;;;;;;;;6165377;22;20202;-63
2020/12/20 19:54:05;;;;;;;981.57;875.03;;;;;;;;;;6164787;23;20151;-64
2020/12/20 19:56:32;;;;;;;931.63;835.33;;;;;;;;;;6166796;23;20291;-64
2020/12/20 19:58:59;;;;;;;1016.17;866.87;;;;;;;;;;6167445;23;20251;-65
2020/12/20 20:01:25;;;;;;;922.13;823.33;;;;;;;;;;6168139;23;20253;-65
2020/12/20 20:03:55;;;;;;;956.70;856.27;;;;;;;;;;6168484;23;20153;-63
2020/12/20 20:06:23;;;;;;;913.57;818.83;;;;;;;;;;6167446;23;20152;-63
2020/12/20 20:09:00;;;;;;;915.40;820.13;;;;;;;;;;6167203;23;20206;-63
2020/12/20 20:11:28;;;;;;;908.87;818.67;;;;;;;;;;6164791;22;20190;-64
2020/12/20 20:13:55;;;;;;;956.23;857.10;;;;;;;;;;6165284;23;20145;-65
2020/12/20 20:16:22;;;;;;;933.40;842.27;;;;;;;;;;6164224;23;20242;-63
2020/12/20 20:18:49;;;;;;;946.10;850.33;;;;;;;;;;6165274;23;20145;-63
2020/12/20 20:21:29;;;;;;;892.83;801.40;;;;;;;;;;6164966;23;20602;-64
2020/12/20 20:23:56;;;;;;;920.70;827.70;;;;;;;;;;6165557;23;20877;-64
2020/12/20 20:26:25;;;;;;;975.53;874.67;;;;;;;;;;6166129;23;20166;-63
2020/12/20 20:28:53;;;;;;;947.93;847.63;;;;;;;;;;6165656;23;20173;-64
2020/12/20 20:31:26;;;;;;;936.23;832.20;;;;;;;;;;6164708;22;20150;-63
2020/12/20 20:33:56;;;;;;;896.27;805.00;;;;;;;;;;6163886;23;20596;-65
2020/12/20 20:36:25;;;;;;;932.47;818.63;;;;;;;;;;6164898;22;20196;-61
2020/12/20 20:38:52;;;;;;;843.53;760.27;;;;;;;;;;6165430;23;20160;-62
2020/12/20 20:41:18;;;;;;;853.50;767.87;;;;;;;;;;6164526;23;20259;-62
2020/12/20 20:43:47;;;;;;;923.80;823.77;;;;;;;;;;6165405;23;20497;-62
2020/12/20 20:46:15;;;;;;;979.53;870.40;;;;;;;;;;6165605;22;20152;-64
2020/12/20 20:48:49;;;;;;;935.37;834.60;;;;;;;;;;6165359;22;20231;-63
2020/12/20 20:51:16;;;;;;;924.53;824.30;;;;;;;;;;6166262;23;20492;-64
2020/12/20 20:53:45;;;;;;;938.80;840.43;;;;;;;;;;6166876;23;20147;-64
2020/12/20 20:56:18;;;;;;;958.77;853.23;;;;;;;;;;6166065;23;20587;-63
2020/12/20 20:58:45;;;;;;;841.67;764.83;;;;;;;;;;6165202;23;20153;-62
2020/12/20 21:01:11;;;;;;;951.53;848.60;;;;;;;;;;6166705;23;20257;-62
2020/12/20 21:03:38;;;;;;;884.00;796.27;;;;;;;;;;6164841;23;20161;-64
2020/12/20 21:06:05;;;;;;;851.80;775.87;;;;;;;;;;6164455;23;20233;-62
2020/12/20 21:08:31;;;;;;;782.47;706.80;;;;;;;;;;6163785;23;20658;-63
2020/12/20 21:10:58;;;;;;;995.43;864.50;;;;;;;;;;6165177;23;20154;-63
2020/12/20 21:13:25;;;;;;;750.40;683.50;;;;;;;;;;6165556;23;20149;-65
2020/12/20 21:15:54;;;;;;;830.00;748.20;;;;;;;;;;6165483;23;20260;-63
2020/12/20 21:18:23;;;;;;;755.17;685.97;;;;;;;;;;6165187;22;20184;-65
2020/12/20 21:20:50;;;;;;;846.33;761.93;;;;;;;;;;6138691;23;20167;-63
2020/12/20 21:23:17;;;;;;;874.00;779.77;;;;;;;;;;6138561;23;20157;-63
2020/12/20 21:25:43;;;;;;;863.13;781.33;;;;;;;;;;6165151;23;20152;-62
2020/12/20 21:28:10;;;;;;;732.87;664.53;;;;;;;;;;6164360;23;20683;-64
2020/12/20 21:30:37;;;;;;;708.50;647.63;;;;;;;;;;6164542;23;20162;-63
2020/12/20 21:33:05;;;;;;;621.40;572.30;;;;;;;;;;6163422;23;20236;-65
2020/12/20 21:35:32;;;;;;;743.90;680.60;;;;;;;;;;6165608;23;20232;-63
2020/12/20 21:37:59;;;;;;;929.40;810.13;;;;;;;;;;6164357;23;20180;-63
2020/12/20 21:40:26;;;;;;;842.77;756.47;;;;;;;;;;6164963;23;20230;-62
2020/12/20 21:42:52;;;;;;;652.30;601.37;;;;;;;;;;6165311;23;20163;-62
2020/12/20 21:45:19;;;;;;;804.70;731.53;;;;;;;;;;6166353;23;20149;-63
2020/12/20 21:47:47;;;;;;;680.30;628.27;;;;;;;;;;6166304;23;20693;-64
2020/12/20 21:50:13;;;;;;;742.23;681.10;;;;;;;;;;6165645;23;20202;-63
2020/12/20 21:52:40;;;;;;;772.47;707.57;;;;;;;;;;6165854;23;20870;-61
2020/12/20 21:55:12;;;;;;;824.57;752.47;;;;;;;;;;6166023;23;20156;-62
2020/12/20 21:57:39;;;;;;;669.10;616.67;;;;;;;;;;6165037;23;20180;-63
2020/12/20 22:00:09;;;;;;;679.77;624.67;;;;;;;;;;6164244;23;20235;-63
2020/12/20 22:02:36;;;;;;;717.80;663.57;;;;;;;;;;6164825;23;20817;-64
2020/12/20 22:05:05;;;;;;;771.30;707.63;;;;;;;;;;6165349;22;20160;-61
2020/12/20 22:07:32;;;;;;;705.60;649.57;;;;;;;;;;6165135;23;20202;-62
2020/12/20 22:09:59;;;;;;;789.57;716.77;;;;;;;;;;6166453;23;20986;-63
2020/12/20 22:12:26;;;;;;;861.87;785.33;;;;;;;;;;6166012;23;20530;-64
2020/12/20 22:14:55;;;;;;;735.17;680.77;;;;;;;;;;6165414;23;20163;-62
2020/12/20 22:17:22;;;;;;;764.77;702.57;;;;;;;;;;6165770;23;20563;-62
2020/12/20 22:19:51;;;;;;;713.97;660.00;;;;;;;;;;6168019;23;20529;-64
2020/12/20 22:22:18;;;;;;;797.83;730.17;;;;;;;;;;6167450;23;20157;-61
2020/12/20 22:24:45;;;;;;;784.03;716.30;;;;;;;;;;6166969;23;20238;-62
2020/12/20 22:27:12;;;;;;;656.27;608.37;;;;;;;;;;6166688;23;20432;-62
2020/12/20 22:29:40;;;;;;;807.70;734.70;;;;;;;;;;6166850;23;20267;-64
2020/12/20 22:32:07;;;;;;;705.00;654.93;;;;;;;;;;6166157;23;20156;-66
2020/12/20 22:34:33;;;;;;;746.43;688.23;;;;;;;;;;6166543;23;20152;-64
2020/12/20 22:37:00;;;;;;;834.10;763.67;;;;;;;;;;6168150;23;20184;-62
2020/12/20 22:39:32;;;;;;;789.87;726.33;;;;;;;;;;6167725;23;20158;-62
2020/12/20 22:42:00;;;;;;;895.97;810.13;;;;;;;;;;6166422;23;20165;-62
2020/12/20 22:44:26;;;;;;;847.00;775.10;;;;;;;;;;6164359;23;20213;-66
2020/12/20 22:46:56;;;;;;;688.17;638.10;;;;;;;;;;6164984;23;20541;-65
2020/12/20 22:49:22;;;;;;;763.10;697.87;;;;;;;;;;6164216;23;20159;-62
2020/12/20 22:51:51;;;;;;;645.40;599.70;;;;;;;;;;6166528;23;20228;-64
2020/12/20 22:54:18;;;;;;;672.43;622.03;;;;;;;;;;6164374;23;20141;-63
2020/12/20 22:56:46;;;;;;;661.93;610.67;;;;;;;;;;6165711;22;20187;-64
2020/12/20 22:59:13;;;;;;;684.33;632.43;;;;;;;;;;6166719;22;20151;-64
2020/12/20 23:01:39;;;;;;;684.47;634.63;;;;;;;;;;6166579;23;20152;-64
2020/12/20 23:04:06;;;;;;;728.97;670.43;;;;;;;;;;6165954;23;20783;-64
2020/12/20 23:06:33;;;;;;;721.17;662.77;;;;;;;;;;6164703;23;20209;-63
2020/12/20 23:08:59;;;;;;;714.27;657.93;;;;;;;;;;6164257;23;20262;-63
2020/12/20 23:11:26;;;;;;;679.90;631.63;;;;;;;;;;6159117;23;20380;-63
2020/12/20 23:13:54;;;;;;;705.77;647.80;;;;;;;;;;6161972;23;20155;-63
2020/12/20 23:16:22;;;;;;;759.10;699.63;;;;;;;;;;6162406;23;20292;-63
2020/12/20 23:18:49;;;;;;;696.47;644.23;;;;;;;;;;6163638;22;20243;-63
2020/12/20 23:21:16;;;;;;;820.13;748.57;;;;;;;;;;6164046;23;20156;-63
2020/12/20 23:23:43;;;;;;;738.73;677.07;;;;;;;;;;6165967;23;20180;-61
2020/12/20 23:26:10;;;;;;;859.20;778.20;;;;;;;;;;6165590;23;20152;-62
2020/12/20 23:28:36;;;;;;;739.10;681.30;;;;;;;;;;6165989;23;20160;-62
2020/12/20 23:31:03;;;;;;;836.67;765.23;;;;;;;;;;6166932;23;20163;-61
2020/12/20 23:33:30;;;;;;;753.90;691.90;;;;;;;;;;6166656;23;20232;-61
2020/12/20 23:35:57;;;;;;;773.17;712.33;;;;;;;;;;6166037;23;20151;-64
2020/12/20 23:38:24;;;;;;;745.63;687.87;;;;;;;;;;6166530;23;20152;-62
2020/12/20 23:40:51;;;;;;;753.60;691.63;;;;;;;;;;6166443;22;20234;-63
2020/12/20 23:43:17;;;;;;;637.20;591.20;;;;;;;;;;6165192;23;20151;-61
2020/12/20 23:45:45;;;;;;;761.70;697.43;;;;;;;;;;6166136;23;20144;-63
2020/12/20 23:48:11;;;;;;;832.87;757.63;;;;;;;;;;6165742;23;20160;-62
2020/12/20 23:50:38;;;;;;;656.20;605.80;;;;;;;;;;6166224;23;20483;-62
2020/12/20 23:53:05;;;;;;;733.27;674.57;;;;;;;;;;6166099;23;20148;-62
2020/12/20 23:55:32;;;;;;;766.07;701.57;;;;;;;;;;6165908;23;20272;-61
2020/12/20 23:57:58;;;;;;;706.77;647.93;;;;;;;;;;6166559;23;20631;-60
